createdAt,value
2022-10-17T00:00:14.453Z,8.50
2022-10-17T00:03:01.472Z,8.40
2022-10-17T00:05:49.739Z,8.30
2022-10-17T00:08:36.892Z,8.20
2022-10-17T00:11:24.735Z,8.10
2022-10-17T00:14:11.650Z,8.10
2022-10-17T00:16:59.908Z,8.00
2022-10-17T00:19:46.958Z,8.00
2022-10-17T00:22:33.584Z,8.00
2022-10-17T00:25:20.860Z,7.90
2022-10-17T00:28:07.837Z,7.90
2022-10-17T00:30:57.931Z,7.90
2022-10-17T00:33:46.233Z,7.90
2022-10-17T00:36:34.950Z,7.80
2022-10-17T00:39:22.148Z,7.80
2022-10-17T00:42:13.473Z,7.80
2022-10-17T00:45:20.135Z,7.70
2022-10-17T00:48:10.613Z,7.70
2022-10-17T00:50:58.708Z,7.70
2022-10-17T00:53:45.519Z,7.70
2022-10-17T00:56:33.045Z,7.60
2022-10-17T00:59:22.640Z,7.60
2022-10-17T01:02:13.584Z,7.60
2022-10-17T01:05:01.380Z,7.50
2022-10-17T01:07:51.942Z,7.50
2022-10-17T01:10:51.089Z,7.50
2022-10-17T01:13:45.910Z,7.50
2022-10-17T01:16:42.151Z,7.40
2022-10-17T01:19:45.934Z,7.40
2022-10-17T01:22:40.837Z,7.40
2022-10-17T01:25:42.555Z,7.40
2022-10-17T01:28:53.663Z,7.40
2022-10-17T01:31:47.857Z,7.40
2022-10-17T01:34:38.871Z,7.40
2022-10-17T01:37:31.797Z,7.40
2022-10-17T01:40:24.690Z,7.40
2022-10-17T01:43:16.363Z,7.40
2022-10-17T01:46:08.480Z,7.40
2022-10-17T01:48:59.748Z,7.50
2022-10-17T01:51:49.471Z,7.40
2022-10-17T01:54:41.927Z,7.40
2022-10-17T01:57:33.362Z,7.40
2022-10-17T02:00:26.481Z,7.40
2022-10-17T02:03:16.748Z,7.40
2022-10-17T02:06:05.343Z,7.40
2022-10-17T02:08:52.615Z,7.30
2022-10-17T02:11:39.220Z,7.30
2022-10-17T02:14:39.617Z,7.30
2022-10-17T02:17:39.548Z,7.20
2022-10-17T02:20:32.512Z,7.20
2022-10-17T02:23:27.903Z,7.20
2022-10-17T02:26:22.543Z,7.20
2022-10-17T02:29:14.259Z,7.20
2022-10-17T02:32:05.346Z,7.10
2022-10-17T02:34:55.662Z,7.10
2022-10-17T02:37:45.020Z,7.00
2022-10-17T02:40:33.449Z,7.00
2022-10-17T02:43:21.051Z,7.00
2022-10-17T02:46:09.081Z,7.00
2022-10-17T02:49:01.748Z,7.00
2022-10-17T02:51:53.513Z,7.00
2022-10-17T02:54:44.510Z,7.00
2022-10-17T02:57:38.749Z,6.90
2022-10-17T03:00:27.534Z,6.90
2022-10-17T03:03:22.700Z,6.90
2022-10-17T03:06:09.269Z,6.90
2022-10-17T03:08:55.721Z,6.80
2022-10-17T03:11:42.894Z,6.90
2022-10-17T03:14:31.206Z,6.90
2022-10-17T03:17:18.118Z,6.90
2022-10-17T03:20:06.122Z,6.80
2022-10-17T03:22:52.915Z,6.80
2022-10-17T03:25:39.815Z,6.80
2022-10-17T03:28:26.758Z,6.80
2022-10-17T03:31:18.110Z,6.80
2022-10-17T03:34:05.125Z,6.80
2022-10-17T03:36:52.391Z,6.80
2022-10-17T03:39:38.845Z,6.80
2022-10-17T03:42:25.658Z,6.80
2022-10-17T03:45:12.454Z,6.80
2022-10-17T03:48:01.336Z,6.90
2022-10-17T03:50:48.107Z,6.90
2022-10-17T03:53:35.399Z,7.00
2022-10-17T03:56:24.018Z,7.00
2022-10-17T03:59:15.157Z,7.10
2022-10-17T04:02:01.792Z,7.10
2022-10-17T04:04:50.167Z,7.10
2022-10-17T04:07:38.152Z,7.10
2022-10-17T04:10:25.294Z,7.10
2022-10-17T04:13:12.148Z,7.20
2022-10-17T04:16:00.596Z,7.20
2022-10-17T04:18:47.616Z,7.30
2022-10-17T04:21:35.883Z,7.30
2022-10-17T04:24:22.654Z,7.20
2022-10-17T04:27:09.748Z,7.20
2022-10-17T04:29:56.591Z,7.20
2022-10-17T04:32:43.477Z,7.10
2022-10-17T04:35:30.092Z,7.20
2022-10-17T04:38:18.282Z,7.10
2022-10-17T04:41:07.284Z,7.10
2022-10-17T04:43:53.994Z,7.10
2022-10-17T04:46:40.754Z,7.10
2022-10-17T04:49:28.228Z,7.00
2022-10-17T04:52:14.925Z,7.00
2022-10-17T04:55:02.846Z,7.00
2022-10-17T04:57:49.477Z,6.90
2022-10-17T05:00:37.502Z,6.90
2022-10-17T05:03:24.199Z,6.90
2022-10-17T05:06:12.598Z,6.90
2022-10-17T05:08:59.963Z,6.90
2022-10-17T05:11:48.446Z,6.90
2022-10-17T05:14:35.384Z,6.90
2022-10-17T05:17:22.260Z,6.80
2022-10-17T05:20:10.440Z,6.80
2022-10-17T05:22:57.142Z,6.80
2022-10-17T05:25:43.781Z,6.80
2022-10-17T05:28:32.049Z,6.80
2022-10-17T05:31:19.102Z,6.80
2022-10-17T05:34:09.004Z,6.80
2022-10-17T05:36:59.223Z,6.70
2022-10-17T05:39:50.640Z,6.70
2022-10-17T05:42:41.391Z,6.60
2022-10-17T05:45:31.630Z,6.60
2022-10-17T05:48:18.623Z,6.60
2022-10-17T05:51:08.831Z,6.60
2022-10-17T05:53:55.865Z,6.60
2022-10-17T05:56:42.968Z,6.50
2022-10-17T05:59:30.117Z,6.50
2022-10-17T06:02:18.322Z,6.50
2022-10-17T06:05:06.109Z,6.50
2022-10-17T06:08:02.713Z,6.50
2022-10-17T06:10:50.391Z,6.60
2022-10-17T06:13:37.422Z,6.60
2022-10-17T06:16:24.463Z,6.60
2022-10-17T06:19:12.769Z,6.60
2022-10-17T06:22:01.509Z,6.70
2022-10-17T06:24:48.294Z,6.70
2022-10-17T06:27:35.160Z,6.70
2022-10-17T06:30:21.803Z,6.80
2022-10-17T06:33:08.778Z,6.80
2022-10-17T06:35:57.976Z,6.90
2022-10-17T06:38:44.785Z,7.00
2022-10-17T06:41:31.559Z,7.20
2022-10-17T06:44:18.482Z,7.40
2022-10-17T06:47:06.246Z,7.60
2022-10-17T06:49:53.069Z,7.70
2022-10-17T06:52:41.422Z,7.80
2022-10-17T06:55:27.958Z,8.10
2022-10-17T06:58:14.912Z,8.30
2022-10-17T07:01:02.678Z,8.50
2022-10-17T07:03:50.684Z,8.80
2022-10-17T07:06:37.616Z,9.00
2022-10-17T07:09:26.855Z,9.10
2022-10-17T07:12:13.795Z,9.30
2022-10-17T07:15:00.869Z,9.50
2022-10-17T07:17:50.376Z,9.70
2022-10-17T07:20:37.646Z,9.90
2022-10-17T07:23:25.463Z,10.40
2022-10-17T07:26:14.823Z,11.50
2022-10-17T07:29:01.873Z,12.20
2022-10-17T07:31:50.306Z,12.90
2022-10-17T07:34:37.360Z,13.10
2022-10-17T07:37:24.494Z,13.00
2022-10-17T07:40:12.513Z,13.40
2022-10-17T07:43:01.151Z,13.90
2022-10-17T07:45:47.898Z,14.30
2022-10-17T07:48:36.923Z,14.50
2022-10-17T07:51:23.607Z,14.70
2022-10-17T07:54:10.679Z,15.10
2022-10-17T07:56:57.785Z,15.50
2022-10-17T07:59:46.034Z,16.00
2022-10-17T08:02:33.109Z,15.60
2022-10-17T08:05:20.423Z,15.10
2022-10-17T08:08:07.108Z,15.00
2022-10-17T08:10:55.086Z,15.00
2022-10-17T08:13:42.408Z,15.30
2022-10-17T08:16:31.087Z,15.80
2022-10-17T08:19:18.032Z,16.30
2022-10-17T08:22:04.641Z,16.40
2022-10-17T08:24:52.039Z,16.90
2022-10-17T08:27:39.065Z,17.10
2022-10-17T08:30:30.691Z,17.40
2022-10-17T08:33:19.458Z,17.70
2022-10-17T08:36:07.603Z,17.60
2022-10-17T08:38:54.502Z,17.70
2022-10-17T08:41:53.478Z,18.80
2022-10-17T08:44:51.237Z,18.70
2022-10-17T08:47:43.471Z,19.00
2022-10-17T08:50:37.329Z,19.00
2022-10-17T08:53:30.624Z,19.50
2022-10-17T08:56:25.028Z,19.60
2022-10-17T08:59:29.981Z,19.40
2022-10-17T09:02:29.701Z,19.40
2022-10-17T09:05:35.926Z,19.40
2022-10-17T09:08:34.160Z,19.60
2022-10-17T09:11:43.007Z,19.80
2022-10-17T09:14:55.051Z,20.20
2022-10-17T09:17:52.239Z,20.30
2022-10-17T09:20:45.861Z,21.20
2022-10-17T09:23:41.767Z,22.80
2022-10-17T09:26:30.044Z,22.40
2022-10-17T09:29:21.382Z,22.40
2022-10-17T09:32:16.081Z,22.30
2022-10-17T09:35:03.266Z,22.00
2022-10-17T09:37:52.078Z,21.50
2022-10-17T09:40:39.140Z,22.00
2022-10-17T09:43:26.691Z,22.20
2022-10-17T09:46:20.227Z,22.90
2022-10-17T09:49:14.805Z,22.70
2022-10-17T09:52:06.437Z,23.00
2022-10-17T09:54:58.603Z,23.80
2022-10-17T09:57:56.878Z,24.40
2022-10-17T10:00:45.852Z,24.90
2022-10-17T10:03:32.985Z,25.70
2022-10-17T10:06:21.867Z,25.20
2022-10-17T10:09:22.893Z,26.10
2022-10-17T10:12:20.202Z,26.40
2022-10-17T10:15:33.861Z,27.10
2022-10-17T10:18:33.521Z,27.40
2022-10-17T10:21:21.833Z,26.90
2022-10-17T10:24:14.346Z,26.50
2022-10-17T10:27:03.496Z,26.90
2022-10-17T10:29:53.437Z,26.60
2022-10-17T10:32:40.267Z,26.40
2022-10-17T10:35:32.617Z,26.40
2022-10-17T10:38:19.854Z,26.90
2022-10-17T10:41:09.057Z,27.20
2022-10-17T10:43:57.308Z,27.70
2022-10-17T10:46:46.077Z,27.40
2022-10-17T10:49:33.768Z,26.50
2022-10-17T10:52:34.173Z,26.80
2022-10-17T10:55:28.145Z,26.10
2022-10-17T10:58:27.564Z,26.40
2022-10-17T11:01:21.279Z,27.10
2022-10-17T11:04:27.444Z,26.90
2022-10-17T11:07:19.353Z,27.10
2022-10-17T11:10:15.711Z,27.30
2022-10-17T11:13:11.687Z,27.40
2022-10-17T11:16:03.544Z,27.00
2022-10-17T11:18:56.393Z,26.80
2022-10-17T11:21:48.309Z,26.40
2022-10-17T11:24:40.811Z,25.90
2022-10-17T11:27:29.500Z,26.20
2022-10-17T11:30:17.950Z,26.70
2022-10-17T11:33:06.860Z,26.50
2022-10-17T11:35:58.721Z,26.90
2022-10-17T11:38:50.982Z,27.00
2022-10-17T11:42:06.048Z,27.70
2022-10-17T11:44:59.995Z,27.70
2022-10-17T11:47:50.763Z,27.80
2022-10-17T11:53:56.264Z,27.70
2022-10-17T11:57:03.984Z,27.40
2022-10-17T12:00:00.576Z,27.60
2022-10-17T12:02:59.156Z,27.80
2022-10-17T12:05:51.667Z,27.60
2022-10-17T12:08:45.806Z,27.40
2022-10-17T12:11:54.114Z,27.00
2022-10-17T12:14:43.214Z,26.70
2022-10-17T12:17:34.863Z,26.60
2022-10-17T12:20:36.688Z,26.10
2022-10-17T12:23:29.186Z,25.40
2022-10-17T12:26:27.652Z,25.10
2022-10-17T12:29:28.601Z,24.80
2022-10-17T12:32:16.091Z,24.70
2022-10-17T12:35:02.909Z,24.50
2022-10-17T12:38:16.308Z,24.30
2022-10-17T12:41:07.876Z,24.10
2022-10-17T12:43:55.831Z,23.80
2022-10-17T12:46:51.071Z,23.70
2022-10-17T12:49:43.141Z,23.60
2022-10-17T12:52:57.962Z,23.50
2022-10-17T12:55:45.179Z,23.30
2022-10-17T12:58:32.538Z,23.10
2022-10-17T13:01:24.905Z,23.00
2022-10-17T13:04:13.683Z,22.80
2022-10-17T13:07:01.681Z,22.70
2022-10-17T13:09:49.962Z,22.70
2022-10-17T13:12:41.313Z,22.50
2022-10-17T13:15:29.799Z,22.50
2022-10-17T13:18:22.045Z,22.40
2022-10-17T13:21:17.316Z,22.40
2022-10-17T13:24:22.660Z,22.40
2022-10-17T13:27:25.961Z,22.40
2022-10-17T13:30:31.120Z,22.20
2022-10-17T13:33:38.059Z,21.80
2022-10-17T13:36:26.930Z,21.80
2022-10-17T13:39:23.123Z,21.60
2022-10-17T13:42:24.113Z,21.80
2022-10-17T13:45:19.453Z,21.70
2022-10-17T13:48:10.147Z,21.70
2022-10-17T13:51:03.000Z,21.70
2022-10-17T13:53:52.000Z,21.60
2022-10-17T13:56:38.804Z,21.50
2022-10-17T13:59:39.154Z,21.40
2022-10-17T14:02:28.108Z,21.50
2022-10-17T14:05:18.678Z,21.50
2022-10-17T14:08:17.976Z,21.50
2022-10-17T14:11:22.570Z,21.50
2022-10-17T14:14:18.863Z,21.50
2022-10-17T14:17:15.029Z,21.40
2022-10-17T14:20:40.393Z,21.30
2022-10-17T14:23:36.803Z,21.30
2022-10-17T14:26:25.592Z,21.30
2022-10-17T14:29:23.906Z,21.30
2022-10-17T14:32:16.338Z,21.30
2022-10-17T14:35:30.255Z,21.20
2022-10-17T14:38:16.171Z,21.30
2022-10-17T14:44:31.881Z,21.20
2022-10-17T14:47:42.181Z,21.20
2022-10-17T14:50:30.191Z,21.30
2022-10-17T14:53:22.578Z,21.20
2022-10-17T14:56:23.689Z,21.10
2022-10-17T14:59:13.786Z,20.90
2022-10-17T15:02:06.731Z,21.00
2022-10-17T15:04:53.653Z,20.90
2022-10-17T15:07:40.500Z,20.80
2022-10-17T15:10:41.024Z,20.70
2022-10-17T15:13:31.350Z,20.60
2022-10-17T15:16:24.016Z,20.60
2022-10-17T15:19:14.781Z,20.50
2022-10-17T15:22:01.887Z,20.40
2022-10-17T15:24:48.910Z,20.30
2022-10-17T15:27:35.963Z,20.20
2022-10-17T15:30:25.005Z,20.00
2022-10-17T15:33:11.740Z,19.90
2022-10-17T15:36:00.255Z,19.70
2022-10-17T15:38:47.524Z,19.70
2022-10-17T15:41:34.991Z,19.50
2022-10-17T15:44:21.830Z,19.30
2022-10-17T15:47:16.940Z,19.00
2022-10-17T15:50:04.884Z,18.70
2022-10-17T15:52:53.452Z,18.50
2022-10-17T15:55:40.331Z,18.20
2022-10-17T15:58:29.113Z,18.10
2022-10-17T16:01:22.387Z,17.80
2022-10-17T16:04:12.775Z,17.60
2022-10-17T16:06:59.479Z,17.50
2022-10-17T16:09:48.224Z,17.30
2022-10-17T16:12:41.189Z,17.10
2022-10-17T16:15:29.501Z,17.00
2022-10-17T16:18:16.433Z,16.80
2022-10-17T16:21:03.649Z,16.60
2022-10-17T16:23:50.773Z,16.50
2022-10-17T16:26:39.248Z,16.40
2022-10-17T16:29:26.206Z,16.20
2022-10-17T16:32:13.348Z,16.10
2022-10-17T16:35:00.532Z,15.90
2022-10-17T16:37:47.556Z,15.80
2022-10-17T16:40:34.427Z,15.70
2022-10-17T16:43:24.114Z,15.50
2022-10-17T16:46:11.010Z,15.40
2022-10-17T16:48:59.402Z,15.40
2022-10-17T16:51:46.055Z,15.20
2022-10-17T16:54:34.497Z,15.10
2022-10-17T16:57:21.348Z,14.90
2022-10-17T17:00:12.041Z,14.80
2022-10-17T17:02:59.012Z,14.70
2022-10-17T17:05:51.788Z,14.50
2022-10-17T17:08:38.487Z,14.40
2022-10-17T17:11:27.430Z,14.20
2022-10-17T17:14:14.292Z,14.20
2022-10-17T17:17:03.947Z,14.10
2022-10-17T17:19:50.626Z,14.00
2022-10-17T17:22:37.611Z,13.90
2022-10-17T17:25:24.885Z,13.70
2022-10-17T17:28:11.686Z,13.70
2022-10-17T17:30:59.184Z,13.50
2022-10-17T17:33:47.849Z,13.40
2022-10-17T17:36:37.505Z,13.40
2022-10-17T17:39:24.733Z,13.30
2022-10-17T17:42:11.656Z,13.20
2022-10-17T17:44:58.849Z,13.20
2022-10-17T17:47:45.708Z,13.10
2022-10-17T17:50:33.919Z,12.90
2022-10-17T17:53:20.708Z,12.80
2022-10-17T17:56:10.251Z,12.80
2022-10-17T17:59:00.777Z,12.70
2022-10-17T18:01:47.777Z,12.60
2022-10-17T18:04:35.044Z,12.50
2022-10-17T18:07:23.680Z,12.40
2022-10-17T18:13:02.583Z,12.30
2022-10-17T18:15:51.897Z,12.30
2022-10-17T18:18:39.286Z,12.10
2022-10-17T18:21:25.917Z,12.10
2022-10-17T18:24:17.471Z,12.00
2022-10-17T18:27:04.552Z,11.90
2022-10-17T18:29:51.701Z,11.90
2022-10-17T18:32:38.451Z,11.70
2022-10-17T18:35:25.281Z,11.70
2022-10-17T18:38:12.584Z,11.60
2022-10-17T18:41:08.720Z,11.60
2022-10-17T18:43:56.607Z,11.50
2022-10-17T18:49:33.073Z,11.40
2022-10-17T18:52:19.983Z,11.30
2022-10-17T18:55:07.974Z,11.30
2022-10-17T18:57:56.453Z,11.20
2022-10-17T19:00:43.483Z,11.20
2022-10-17T19:03:30.335Z,11.20
2022-10-17T19:06:19.732Z,11.20
2022-10-17T19:09:08.912Z,11.10
2022-10-17T19:11:56.558Z,11.10
2022-10-17T19:14:44.820Z,11.00
2022-10-17T19:17:31.842Z,11.00
2022-10-17T19:20:18.705Z,11.00
2022-10-17T19:23:05.475Z,11.00
2022-10-17T19:25:54.133Z,10.90
2022-10-17T19:28:42.965Z,10.90
2022-10-17T19:31:32.905Z,10.90
2022-10-17T19:34:20.024Z,10.80
2022-10-17T19:37:07.002Z,10.80
2022-10-17T19:39:53.714Z,10.70
2022-10-17T19:42:40.488Z,10.70
2022-10-17T19:45:27.511Z,10.70
2022-10-17T19:48:15.913Z,10.60
2022-10-17T19:51:02.847Z,10.50
2022-10-17T19:53:49.890Z,10.50
2022-10-17T19:56:37.988Z,10.40
2022-10-17T19:59:26.216Z,10.40
2022-10-17T20:02:14.653Z,10.40
2022-10-17T20:05:18.157Z,10.30
2022-10-17T20:08:05.961Z,10.30
2022-10-17T20:10:52.837Z,10.20
2022-10-17T20:13:40.579Z,10.30
2022-10-17T20:16:30.018Z,10.20
2022-10-17T20:19:16.573Z,10.20
2022-10-17T20:22:04.940Z,10.10
2022-10-17T20:24:51.808Z,10.10
2022-10-17T20:27:38.645Z,10.10
2022-10-17T20:30:25.165Z,10.00
2022-10-17T20:33:13.865Z,9.90
2022-10-17T20:36:00.751Z,9.90
2022-10-17T20:38:50.531Z,9.90
2022-10-17T20:41:37.591Z,9.90
2022-10-17T20:44:24.362Z,9.80
2022-10-17T20:47:16.118Z,9.80
2022-10-17T20:50:03.533Z,9.80
2022-10-17T20:52:53.342Z,9.80
2022-10-17T20:55:49.366Z,9.80
2022-10-17T20:58:37.009Z,9.80
2022-10-17T21:01:25.146Z,9.80
2022-10-17T21:04:45.374Z,9.70
2022-10-17T21:07:19.334Z,9.70
2022-10-17T21:10:30.565Z,9.60
2022-10-17T21:13:15.602Z,9.50
2022-10-17T21:16:07.111Z,9.50
2022-10-17T21:18:54.419Z,9.50
2022-10-17T21:22:48.361Z,9.50
2022-10-17T21:25:35.060Z,9.40
2022-10-17T21:28:23.602Z,9.40
2022-10-17T21:31:32.947Z,9.30
2022-10-17T21:34:25.151Z,9.30
2022-10-17T21:37:12.506Z,9.20
2022-10-17T21:39:59.147Z,9.10
2022-10-17T21:42:46.046Z,9.10
2022-10-17T21:45:37.180Z,9.10
2022-10-17T21:48:24.112Z,9.10
2022-10-17T21:51:13.879Z,9.10
2022-10-17T21:54:02.575Z,9.10
2022-10-17T21:56:52.102Z,9.10
2022-10-17T21:59:38.887Z,9.00
2022-10-17T22:02:27.183Z,9.00
2022-10-17T22:05:14.112Z,9.00
2022-10-17T22:08:01.519Z,9.00
2022-10-17T22:10:48.086Z,9.00
2022-10-17T22:13:35.017Z,9.00
2022-10-17T22:16:22.503Z,9.10
2022-10-17T22:19:12.640Z,9.10
2022-10-17T22:21:59.567Z,9.20
2022-10-17T22:24:46.495Z,9.20
2022-10-17T22:27:33.612Z,9.30
2022-10-17T22:30:20.559Z,9.40
2022-10-17T22:33:07.436Z,9.40
2022-10-17T22:35:56.165Z,9.50
2022-10-17T22:38:43.332Z,9.60
2022-10-17T22:41:30.462Z,9.60
2022-10-17T22:44:17.268Z,9.70
2022-10-17T22:47:04.454Z,9.70
2022-10-17T22:49:51.245Z,9.80
2022-10-17T22:52:39.677Z,9.80
2022-10-17T22:55:26.865Z,9.90
2022-10-17T22:58:13.665Z,9.90
2022-10-17T23:01:00.518Z,9.90
2022-10-17T23:03:47.680Z,9.80
2022-10-17T23:06:34.612Z,9.80
2022-10-17T23:09:22.903Z,9.70
2022-10-17T23:12:11.071Z,9.70
2022-10-17T23:14:58.022Z,9.80
2022-10-17T23:17:44.786Z,9.80
2022-10-17T23:20:32.386Z,9.80
2022-10-17T23:23:19.390Z,9.80
2022-10-17T23:26:10.769Z,9.90
2022-10-17T23:28:57.566Z,9.90
2022-10-17T23:31:44.349Z,9.90
2022-10-17T23:34:31.587Z,9.90
2022-10-17T23:37:18.962Z,9.90
2022-10-17T23:40:06.551Z,9.90
2022-10-17T23:42:54.883Z,9.90
2022-10-17T23:45:41.982Z,10.00
2022-10-17T23:48:29.271Z,10.00
2022-10-17T23:51:16.208Z,10.00
2022-10-17T23:54:03.230Z,10.10
2022-10-17T23:56:49.997Z,10.10
2022-10-17T23:59:38.330Z,10.10
